Portola, California
Current Conditions -  °F | °C
As of 11:55 PM on Sunday 21 Dec 2014 (Local Time) from KRTS Reporting Station
Clear Clear  
Wind Chill: 37°   Ceiling: Unl
Heat Index: 41°   Visibility: 10mi
Dew Point: 36°   Wind: 6mph
Humidity: 81%   Direction: 350°N
Pressure: 30.3"   Gusts: NA
Location:  39.81°N, 120.47°W
Report Text: KRTS 220755Z AUTO 35005KT 10SM CLR 05/02 A3030 RMK AO2
Loading
Personal Weather Stations






























Interactive Weather Map New forecast layout! Learn more

10-Day Weather Forecast

Advertisements
Track Severe Weather on mobile